createdAt,value
2023-02-02T00:01:36.521Z,6.93
2023-02-02T00:04:03.715Z,9.60
2023-02-02T00:06:30.821Z,8.90
2023-02-02T00:08:58.281Z,8.73
2023-02-02T00:11:25.230Z,9.07
2023-02-02T00:13:51.798Z,9.77
2023-02-02T00:16:27.389Z,8.23
2023-02-02T00:19:01.255Z,11.90
2023-02-02T00:21:28.222Z,11.43
2023-02-02T00:23:54.883Z,12.10
2023-02-02T00:26:21.948Z,7.87
2023-02-02T00:28:48.488Z,13.90
2023-02-02T00:31:14.959Z,11.57
2023-02-02T00:33:44.772Z,12.77
2023-02-02T00:36:11.201Z,14.27
2023-02-02T00:38:38.176Z,11.93
2023-02-02T00:41:05.149Z,11.10
2023-02-02T00:43:31.618Z,16.77
2023-02-02T00:45:58.241Z,11.37
2023-02-02T00:48:25.995Z,14.00
2023-02-02T00:50:53.040Z,12.00
2023-02-02T00:53:19.729Z,15.80
2023-02-02T00:55:46.307Z,14.57
2023-02-02T00:58:12.773Z,14.77
2023-02-02T01:00:39.238Z,11.50
2023-02-02T01:03:07.079Z,15.57
2023-02-02T01:05:34.529Z,16.83
2023-02-02T01:08:01.251Z,15.40
2023-02-02T01:10:27.840Z,21.20
2023-02-02T01:12:54.263Z,15.27
2023-02-02T01:15:20.670Z,11.07
2023-02-02T01:17:47.155Z,12.70
2023-02-02T01:20:18.786Z,16.87
2023-02-02T01:22:45.336Z,14.57
2023-02-02T01:25:11.790Z,18.40
2023-02-02T01:27:38.222Z,19.90
2023-02-02T01:30:05.035Z,14.87
2023-02-02T01:36:20.115Z,15.27
2023-02-02T01:38:46.963Z,10.87
2023-02-02T01:41:14.770Z,11.90
2023-02-02T01:43:44.292Z,10.67
2023-02-02T01:46:14.874Z,17.07
2023-02-02T01:48:43.339Z,13.00
2023-02-02T01:51:13.526Z,13.90
2023-02-02T01:53:40.816Z,13.87
2023-02-02T01:56:08.356Z,15.53
2023-02-02T01:58:37.043Z,13.27
2023-02-02T02:01:04.136Z,14.97
2023-02-02T02:03:32.161Z,16.03
2023-02-02T02:06:05.721Z,12.73
2023-02-02T02:08:37.306Z,11.50
2023-02-02T02:11:03.961Z,14.90
2023-02-02T02:13:50.064Z,13.20
2023-02-02T02:16:27.488Z,16.23
2023-02-02T02:19:22.523Z,12.87
2023-02-02T02:22:10.483Z,16.73
2023-02-02T02:24:58.795Z,15.37
2023-02-02T02:27:44.180Z,12.43
2023-02-02T02:30:27.399Z,12.60
2023-02-02T02:33:02.974Z,14.43
2023-02-02T02:35:33.328Z,15.30
2023-02-02T02:38:07.813Z,12.27
2023-02-02T02:40:42.773Z,15.20
2023-02-02T02:43:12.892Z,9.53
2023-02-02T02:45:39.462Z,12.77
2023-02-02T02:48:08.271Z,11.33
2023-02-02T02:50:34.844Z,10.53
2023-02-02T02:53:06.344Z,8.50
2023-02-02T02:56:02.427Z,9.53
2023-02-02T02:58:36.657Z,9.90
2023-02-02T03:01:20.646Z,13.40
2023-02-02T03:03:53.789Z,10.60
2023-02-02T03:06:26.811Z,6.93
2023-02-02T03:09:08.657Z,9.07
2023-02-02T03:11:35.516Z,7.80
2023-02-02T03:14:01.999Z,9.53
2023-02-02T03:16:28.439Z,8.00
2023-02-02T03:18:56.169Z,9.30
2023-02-02T03:21:23.037Z,7.50
2023-02-02T03:23:49.530Z,7.20
2023-02-02T03:26:16.203Z,8.40
2023-02-02T03:28:42.892Z,9.70
2023-02-02T03:31:09.683Z,9.53
2023-02-02T03:33:36.841Z,7.53
2023-02-02T03:36:03.397Z,5.90
2023-02-02T03:38:30.006Z,5.97
2023-02-02T03:40:56.552Z,10.03
2023-02-02T03:43:23.665Z,11.10
2023-02-02T03:45:57.174Z,7.47
2023-02-02T03:48:23.629Z,4.37
2023-02-02T03:50:50.180Z,8.20
2023-02-02T03:53:16.641Z,7.47
2023-02-02T03:55:43.101Z,7.10
2023-02-02T03:58:09.550Z,6.20
2023-02-02T04:00:36.023Z,7.27
2023-02-02T04:03:02.533Z,8.03
2023-02-02T04:05:29.208Z,9.10
2023-02-02T04:07:55.665Z,9.83
2023-02-02T04:10:22.155Z,10.87
2023-02-02T04:12:48.642Z,7.83
2023-02-02T04:15:15.196Z,6.33
2023-02-02T04:17:41.703Z,9.80
2023-02-02T04:20:08.661Z,7.63
2023-02-02T04:22:35.153Z,6.90
2023-02-02T04:25:01.652Z,6.03
2023-02-02T04:27:28.157Z,5.47
2023-02-02T04:29:54.623Z,5.97
2023-02-02T04:32:21.064Z,7.43
2023-02-02T04:34:47.551Z,4.80
2023-02-02T04:49:19.491Z,6.73
2023-02-02T04:51:45.966Z,7.43
2023-02-02T04:54:12.368Z,4.63
2023-02-02T04:56:38.883Z,5.17
2023-02-02T04:59:05.341Z,4.63
2023-02-02T05:01:31.812Z,3.83
2023-02-02T05:03:58.300Z,5.43
2023-02-02T05:06:24.828Z,4.13
2023-02-02T05:08:51.274Z,3.57
2023-02-02T05:11:19.279Z,4.73
2023-02-02T05:13:49.672Z,6.10
2023-02-02T05:16:16.644Z,9.57
2023-02-02T05:18:43.357Z,6.47
2023-02-02T05:21:10.040Z,5.80
2023-02-02T05:23:36.516Z,4.07
2023-02-02T05:26:03.004Z,3.17
2023-02-02T05:28:29.523Z,3.50
2023-02-02T05:30:56.064Z,4.87
2023-02-02T05:33:22.579Z,2.53
2023-02-02T05:35:49.218Z,3.43
2023-02-02T05:38:16.082Z,2.83
2023-02-02T05:40:42.628Z,3.47
2023-02-02T05:43:09.195Z,4.17
2023-02-02T05:45:35.732Z,1.37
2023-02-02T05:48:02.224Z,1.23
2023-02-02T05:50:28.853Z,1.57
2023-02-02T05:52:55.320Z,1.53
2023-02-02T05:55:22.189Z,1.10
2023-02-02T05:57:48.848Z,2.40
2023-02-02T06:00:15.599Z,1.87
2023-02-02T06:02:42.296Z,1.30
2023-02-02T06:05:08.973Z,1.00
2023-02-02T06:07:35.418Z,1.13
2023-02-02T06:10:02.021Z,0.57
2023-02-02T06:12:28.524Z,1.57
2023-02-02T06:14:54.957Z,3.63
2023-02-02T06:17:21.394Z,5.13
2023-02-02T06:19:47.896Z,4.07
2023-02-02T06:22:14.410Z,4.10
2023-02-02T06:24:40.889Z,11.10
2023-02-02T06:27:07.435Z,12.43
2023-02-02T06:29:33.887Z,9.90
2023-02-02T06:32:00.408Z,6.80
2023-02-02T06:34:26.932Z,5.43
2023-02-02T06:36:53.367Z,3.43
2023-02-02T06:39:20.057Z,1.43
2023-02-02T06:41:49.581Z,13.20
2023-02-02T06:44:16.201Z,4.97
2023-02-02T06:46:42.711Z,6.23
2023-02-02T06:49:09.206Z,5.17
2023-02-02T07:07:35.716Z,6.43
2023-02-02T07:10:02.205Z,8.07
2023-02-02T07:12:31.269Z,10.47
2023-02-02T07:14:59.471Z,10.67
2023-02-02T07:17:28.495Z,9.83
2023-02-02T07:19:54.949Z,7.67
2023-02-02T07:22:21.388Z,8.50
2023-02-02T07:24:47.891Z,6.20
2023-02-02T07:27:14.315Z,5.37
2023-02-02T07:29:40.747Z,8.40
2023-02-02T07:32:07.235Z,5.43
2023-02-02T07:38:13.944Z,8.37
2023-02-02T07:40:40.426Z,9.60
2023-02-02T07:43:06.905Z,6.70
2023-02-02T07:45:33.452Z,8.60
2023-02-02T07:48:00.311Z,7.43
2023-02-02T07:50:27.452Z,9.60
2023-02-02T08:00:10.033Z,5.57
2023-02-02T08:02:36.550Z,12.07
2023-02-02T08:05:03.060Z,9.97
2023-02-02T08:07:32.370Z,10.63
2023-02-02T08:09:58.878Z,5.67
2023-02-02T08:12:26.563Z,2.10
2023-02-02T08:37:11.309Z,5.20
2023-02-02T08:39:37.762Z,5.17
2023-02-02T08:42:04.195Z,3.27
2023-02-02T08:44:43.095Z,3.87
2023-02-02T08:47:17.220Z,2.87
2023-02-02T08:49:45.062Z,2.73
2023-02-02T08:52:11.483Z,3.40
2023-02-02T08:54:37.966Z,4.00
2023-02-02T08:57:04.537Z,8.53
2023-02-02T08:59:30.995Z,8.47
2023-02-02T09:01:57.748Z,7.33
2023-02-02T09:04:24.351Z,5.60
2023-02-02T09:06:50.802Z,3.27
2023-02-02T09:09:17.656Z,4.83
2023-02-02T09:11:44.347Z,2.63
2023-02-02T09:14:12.073Z,8.37
2023-02-02T09:16:38.830Z,5.47
2023-02-02T09:19:05.851Z,12.63
2023-02-02T09:21:36.921Z,6.83
2023-02-02T09:24:07.607Z,7.40
2023-02-02T09:26:34.271Z,5.10
2023-02-02T09:29:19.671Z,2.43
2023-02-02T09:31:47.055Z,3.80
2023-02-02T09:34:14.528Z,2.27
2023-02-02T09:36:42.085Z,4.33
2023-02-02T09:39:10.203Z,6.17
2023-02-02T09:41:39.606Z,2.73
2023-02-02T09:44:24.332Z,2.70
2023-02-02T09:46:53.804Z,1.00
2023-02-02T09:49:24.842Z,1.50
2023-02-02T09:51:59.601Z,1.60
2023-02-02T09:54:34.790Z,1.37
2023-02-02T09:57:03.070Z,1.37
2023-02-02T09:59:33.617Z,1.03
2023-02-02T10:02:05.088Z,1.90
2023-02-02T10:04:40.035Z,1.80
2023-02-02T10:07:18.817Z,3.13
2023-02-02T10:09:51.246Z,2.20
2023-02-02T10:12:21.028Z,1.73
2023-02-02T10:14:54.074Z,1.20
2023-02-02T10:17:39.072Z,1.40
2023-02-02T10:20:15.257Z,2.33
2023-02-02T10:22:41.922Z,2.23
2023-02-02T10:25:12.089Z,3.30
2023-02-02T10:27:39.774Z,3.27
2023-02-02T10:30:29.287Z,5.97
2023-02-02T10:33:01.209Z,9.90
2023-02-02T10:35:41.801Z,4.13
2023-02-02T10:38:11.047Z,4.43
2023-02-02T10:40:55.953Z,4.97
2023-02-02T10:43:43.920Z,3.57
2023-02-02T10:46:13.038Z,2.63
2023-02-02T10:48:40.610Z,3.07
2023-02-02T10:51:12.758Z,1.57
2023-02-02T10:54:00.141Z,2.13
2023-02-02T10:56:48.253Z,2.73
2023-02-02T10:59:36.064Z,2.63
2023-02-02T11:02:21.612Z,2.70
2023-02-02T11:05:30.129Z,2.63
2023-02-02T11:08:20.083Z,2.30
2023-02-02T11:25:39.712Z,2.10
2023-02-02T11:28:27.436Z,4.60
2023-02-02T11:31:12.994Z,3.90
2023-02-02T11:38:16.738Z,5.03
2023-02-02T11:41:04.130Z,4.17
2023-02-02T11:43:52.382Z,4.07
2023-02-02T11:46:38.252Z,6.00
2023-02-02T11:49:25.520Z,6.73
2023-02-02T11:52:16.986Z,2.53
2023-02-02T11:55:08.784Z,2.03
2023-02-02T11:58:12.783Z,5.67
2023-02-02T12:01:02.375Z,3.37
2023-02-02T12:03:48.188Z,3.43
2023-02-02T12:18:19.589Z,4.07
2023-02-02T12:21:10.827Z,3.70
2023-02-02T12:24:14.270Z,2.73
2023-02-02T12:27:02.239Z,4.17
2023-02-02T12:30:00.324Z,2.73
2023-02-02T12:33:05.764Z,2.77
2023-02-02T12:35:54.143Z,1.97
2023-02-02T12:39:00.567Z,3.67
2023-02-02T12:42:01.299Z,6.73
2023-02-02T12:44:53.545Z,3.13
2023-02-02T12:47:39.050Z,2.97
2023-02-02T12:50:36.415Z,2.87
2023-02-02T12:53:24.952Z,3.23
2023-02-02T12:56:23.038Z,2.47
2023-02-02T12:59:17.490Z,2.70
2023-02-02T13:02:10.953Z,2.43
2023-02-02T13:08:07.215Z,4.30
2023-02-02T13:10:55.765Z,3.17
2023-02-02T13:13:41.388Z,2.53
2023-02-02T13:16:27.233Z,2.27
2023-02-02T13:19:15.696Z,3.00
2023-02-02T13:22:01.951Z,4.20
2023-02-02T13:24:48.116Z,4.60
2023-02-02T13:27:33.425Z,2.23
2023-02-02T13:30:18.653Z,2.40
2023-02-02T13:33:24.979Z,2.80
2023-02-02T13:36:16.525Z,3.00
2023-02-02T13:39:03.517Z,3.20
2023-02-02T13:41:49.558Z,2.67
2023-02-02T13:44:47.700Z,2.23
2023-02-02T13:47:41.041Z,2.30
2023-02-02T13:50:30.326Z,3.00
2023-02-02T13:53:33.610Z,2.13
2023-02-02T13:56:18.948Z,1.63
2023-02-02T13:59:10.774Z,1.43
2023-02-02T14:01:57.653Z,2.53
2023-02-02T14:04:43.312Z,4.93
2023-02-02T14:07:32.313Z,5.33
2023-02-02T14:10:23.752Z,4.43
2023-02-02T14:13:51.377Z,4.20
2023-02-02T14:16:36.296Z,3.80
2023-02-02T14:19:42.372Z,2.63
2023-02-02T14:22:39.398Z,3.73
2023-02-02T14:25:33.880Z,4.93
2023-02-02T14:28:37.119Z,2.47
2023-02-02T14:31:28.640Z,3.10
2023-02-02T14:34:28.217Z,1.57
2023-02-02T14:37:15.896Z,2.23
2023-02-02T14:40:01.335Z,3.23
2023-02-02T14:43:08.072Z,2.47
2023-02-02T14:46:12.041Z,1.70
2023-02-02T14:48:57.660Z,2.50
2023-02-02T14:52:09.450Z,2.83
2023-02-02T14:54:55.922Z,4.77
2023-02-02T14:57:44.075Z,2.70
2023-02-02T15:00:31.543Z,7.33
2023-02-02T15:03:38.420Z,4.30
2023-02-02T15:06:34.594Z,2.80
2023-02-02T15:09:20.223Z,2.27
2023-02-02T15:12:15.091Z,5.17
2023-02-02T15:15:10.858Z,2.90
2023-02-02T15:29:44.236Z,1.70
2023-02-02T15:32:30.460Z,3.53
2023-02-02T15:35:19.334Z,2.77
2023-02-02T15:38:06.936Z,3.73
2023-02-02T15:40:52.791Z,3.67
2023-02-02T15:43:38.756Z,3.50
2023-02-02T15:46:26.955Z,4.87
2023-02-02T15:49:35.210Z,4.70
2023-02-02T15:52:28.588Z,3.83
2023-02-02T15:55:24.820Z,3.47
2023-02-02T15:58:29.607Z,6.23
2023-02-02T16:01:17.351Z,3.93
2023-02-02T16:04:43.216Z,6.23
2023-02-02T16:07:30.465Z,5.77
2023-02-02T16:10:19.973Z,7.23
2023-02-02T16:13:05.645Z,4.03
2023-02-02T16:16:01.846Z,5.30
2023-02-02T16:18:47.758Z,5.27
2023-02-02T16:21:33.783Z,7.57
2023-02-02T16:24:22.701Z,4.67
2023-02-02T16:27:12.467Z,7.40
2023-02-02T16:30:02.665Z,8.87
2023-02-02T16:32:49.309Z,14.17
2023-02-02T16:35:37.299Z,11.67
2023-02-02T16:38:24.928Z,8.00
2023-02-02T16:41:12.173Z,5.70
2023-02-02T16:44:18.546Z,4.33
2023-02-02T16:47:32.475Z,3.10
2023-02-02T16:50:20.603Z,6.37
2023-02-02T16:53:06.593Z,6.03
2023-02-02T16:55:53.021Z,3.87
2023-02-02T16:58:45.897Z,4.93
2023-02-02T17:01:42.995Z,4.17
2023-02-02T17:04:31.291Z,4.57
2023-02-02T17:07:17.210Z,3.10
2023-02-02T17:10:11.843Z,8.90
2023-02-02T17:13:00.745Z,4.77
2023-02-02T17:15:53.709Z,4.57
2023-02-02T17:18:40.395Z,6.20
2023-02-02T17:21:26.310Z,3.80
2023-02-02T17:24:12.450Z,3.60
2023-02-02T17:26:58.584Z,4.13
2023-02-02T17:29:46.497Z,3.43
2023-02-02T17:32:32.592Z,3.23
2023-02-02T17:35:23.293Z,4.93
2023-02-02T17:38:09.821Z,4.50
2023-02-02T17:40:56.603Z,3.13
2023-02-02T17:43:43.580Z,3.87
2023-02-02T17:46:31.465Z,6.50
2023-02-02T17:49:17.932Z,5.73
2023-02-02T17:52:04.339Z,8.27
2023-02-02T17:54:52.017Z,11.90
2023-02-02T17:57:40.436Z,10.70
2023-02-02T18:00:29.319Z,4.60
2023-02-02T18:03:20.725Z,3.20
2023-02-02T18:06:07.122Z,3.20
2023-02-02T18:08:54.412Z,8.90
2023-02-02T18:11:42.507Z,8.57
2023-02-02T18:14:30.047Z,6.57
2023-02-02T18:17:15.951Z,5.10
2023-02-02T18:20:02.861Z,5.33
2023-02-02T18:22:49.416Z,8.37
2023-02-02T18:25:35.602Z,14.17
2023-02-02T18:28:21.483Z,10.53
2023-02-02T18:34:56.549Z,5.03
2023-02-02T18:37:42.206Z,33.60
2023-02-02T18:40:28.177Z,13.57
2023-02-02T18:43:14.104Z,8.33
2023-02-02T18:46:00.993Z,8.53
2023-02-02T18:48:47.259Z,5.27
2023-02-02T18:51:33.194Z,6.10
2023-02-02T18:54:19.417Z,10.43
2023-02-02T18:57:05.950Z,6.70
2023-02-02T18:59:52.927Z,7.10
2023-02-02T19:02:39.554Z,3.77
2023-02-02T19:05:44.352Z,3.83
2023-02-02T19:08:33.714Z,4.00
2023-02-02T19:11:21.269Z,6.30
2023-02-02T19:14:13.118Z,9.13
2023-02-02T19:17:17.800Z,8.93
2023-02-02T19:38:33.794Z,12.73
2023-02-02T19:41:21.894Z,9.43
2023-02-02T19:44:12.469Z,6.20
2023-02-02T19:46:58.150Z,8.23
2023-02-02T19:49:43.906Z,8.30
2023-02-02T19:52:30.386Z,7.27
2023-02-02T19:55:22.869Z,8.10
2023-02-02T19:58:20.274Z,6.87
2023-02-02T20:01:15.814Z,3.57
2023-02-02T20:04:04.104Z,15.03
2023-02-02T20:06:58.981Z,8.30
2023-02-02T20:09:46.057Z,17.33
2023-02-02T20:12:32.421Z,9.70
2023-02-02T20:15:26.407Z,9.77
2023-02-02T20:18:18.157Z,6.77
2023-02-02T20:21:09.787Z,3.10
2023-02-02T20:23:58.537Z,10.80
2023-02-02T20:26:45.663Z,12.60
2023-02-02T20:29:42.316Z,10.67
2023-02-02T20:32:48.411Z,9.27
2023-02-02T20:35:39.767Z,6.40
2023-02-02T20:38:33.714Z,6.97
2023-02-02T20:41:19.463Z,10.30
2023-02-02T20:44:05.044Z,10.33
2023-02-02T20:46:53.392Z,10.83
2023-02-02T20:49:39.851Z,6.80
2023-02-02T20:52:31.395Z,3.53
2023-02-02T20:55:17.045Z,2.93
2023-02-02T20:58:10.134Z,2.67
2023-02-02T21:00:56.330Z,2.73
2023-02-02T21:03:42.247Z,3.57
2023-02-02T21:06:28.865Z,4.57
2023-02-02T21:09:14.017Z,4.20
2023-02-02T21:11:59.683Z,5.50
2023-02-02T21:14:48.203Z,4.27
2023-02-02T21:17:33.606Z,3.73
2023-02-02T21:20:19.491Z,3.83
2023-02-02T21:23:04.827Z,3.30
2023-02-02T21:25:52.560Z,5.33
2023-02-02T21:28:41.282Z,13.67
2023-02-02T21:31:26.570Z,10.83
2023-02-02T21:34:12.009Z,5.63
2023-02-02T21:36:58.377Z,6.57
2023-02-02T21:39:48.798Z,5.47
2023-02-02T21:42:35.778Z,5.30
2023-02-02T21:45:20.836Z,4.27
2023-02-02T21:48:07.633Z,2.60
2023-02-02T21:50:53.116Z,2.03
2023-02-02T21:53:38.170Z,3.87
2023-02-02T21:56:36.383Z,4.70
2023-02-02T21:59:23.468Z,6.53
2023-02-02T22:02:24.230Z,5.47
2023-02-02T22:05:15.677Z,5.30
2023-02-02T22:08:02.496Z,6.07
2023-02-02T22:10:47.809Z,5.67
2023-02-02T22:13:36.198Z,6.43
2023-02-02T22:16:21.848Z,6.97
2023-02-02T22:19:26.122Z,6.63
2023-02-02T22:22:11.355Z,9.20
2023-02-02T22:25:02.334Z,7.57
2023-02-02T22:27:50.519Z,7.43
2023-02-02T22:30:38.213Z,5.40
2023-02-02T22:33:23.734Z,6.57
2023-02-02T22:36:08.941Z,5.53
2023-02-02T22:38:54.141Z,4.93
2023-02-02T22:41:39.552Z,3.53
2023-02-02T22:44:24.747Z,4.23
2023-02-02T22:47:09.788Z,3.93
2023-02-02T22:49:55.223Z,3.60
2023-02-02T22:52:43.990Z,3.43
2023-02-02T22:55:29.161Z,3.67
2023-02-02T22:58:14.337Z,3.10
2023-02-02T23:00:59.589Z,2.90
2023-02-02T23:03:47.142Z,3.10
2023-02-02T23:06:32.527Z,4.13
2023-02-02T23:09:17.761Z,2.63
2023-02-02T23:12:02.916Z,2.37
2023-02-02T23:14:48.219Z,3.47
2023-02-02T23:17:35.289Z,5.30
2023-02-02T23:20:20.594Z,4.30
2023-02-02T23:23:05.707Z,3.43
2023-02-02T23:25:51.191Z,7.93
2023-02-02T23:28:36.571Z,7.80
2023-02-02T23:31:21.858Z,7.60
2023-02-02T23:34:07.092Z,18.53
2023-02-02T23:36:53.789Z,12.90
2023-02-02T23:39:38.935Z,12.50
2023-02-02T23:42:25.887Z,10.23
2023-02-02T23:45:11.198Z,11.53
2023-02-02T23:47:56.711Z,8.43
2023-02-02T23:50:41.977Z,14.97
2023-02-02T23:53:27.450Z,9.20
2023-02-02T23:56:12.868Z,12.60
2023-02-02T23:58:58.261Z,12.53
